sensor_id;sensor_type;location;lat;lon;timestamp;temperature;humidity
56426;DHT22;42330;43.620;3.856;2022-12-11T00:02:19;0.60;88.70
56426;DHT22;42330;43.620;3.856;2022-12-11T00:04:44;0.20;88.70
56426;DHT22;42330;43.620;3.856;2022-12-11T00:07:10;0.20;90.50
56426;DHT22;42330;43.620;3.856;2022-12-11T00:09:36;0.10;90.30
56426;DHT22;42330;43.620;3.856;2022-12-11T00:12:01;0.00;90.50
56426;DHT22;42330;43.620;3.856;2022-12-11T00:14:28;0.40;91.90
56426;DHT22;42330;43.620;3.856;2022-12-11T00:16:54;0.40;91.10
56426;DHT22;42330;43.620;3.856;2022-12-11T00:19:20;0.50;90.70
56426;DHT22;42330;43.620;3.856;2022-12-11T00:21:45;0.80;91.60
56426;DHT22;42330;43.620;3.856;2022-12-11T00:24:11;0.90;90.30
56426;DHT22;42330;43.620;3.856;2022-12-11T00:26:38;0.70;87.90
56426;DHT22;42330;43.620;3.856;2022-12-11T00:29:03;0.50;89.30
56426;DHT22;42330;43.620;3.856;2022-12-11T00:31:29;0.40;90.60
56426;DHT22;42330;43.620;3.856;2022-12-11T00:33:55;0.50;90.30
56426;DHT22;42330;43.620;3.856;2022-12-11T00:36:23;0.50;90.00
56426;DHT22;42330;43.620;3.856;2022-12-11T00:38:50;0.50;90.00
56426;DHT22;42330;43.620;3.856;2022-12-11T00:41:16;0.40;90.10
56426;DHT22;42330;43.620;3.856;2022-12-11T00:43:42;0.30;88.90
56426;DHT22;42330;43.620;3.856;2022-12-11T00:46:09;0.30;88.90
56426;DHT22;42330;43.620;3.856;2022-12-11T00:48:35;0.30;89.90
56426;DHT22;42330;43.620;3.856;2022-12-11T00:51:01;0.50;89.80
56426;DHT22;42330;43.620;3.856;2022-12-11T00:53:27;0.40;90.80
56426;DHT22;42330;43.620;3.856;2022-12-11T00:55:52;0.50;90.30
56426;DHT22;42330;43.620;3.856;2022-12-11T00:58:18;0.30;90.30
56426;DHT22;42330;43.620;3.856;2022-12-11T01:00:44;0.10;90.80
56426;DHT22;42330;43.620;3.856;2022-12-11T01:03:12;-0.10;91.10
56426;DHT22;42330;43.620;3.856;2022-12-11T01:05:38;-0.10;92.00
56426;DHT22;42330;43.620;3.856;2022-12-11T01:08:04;0.00;92.50
56426;DHT22;42330;43.620;3.856;2022-12-11T01:10:30;0.00;92.20
56426;DHT22;42330;43.620;3.856;2022-12-11T01:12:59;0.10;92.20
56426;DHT22;42330;43.620;3.856;2022-12-11T01:15:30;0.00;91.30
56426;DHT22;42330;43.620;3.856;2022-12-11T01:17:56;0.10;91.70
56426;DHT22;42330;43.620;3.856;2022-12-11T01:20:23;0.10;91.60
56426;DHT22;42330;43.620;3.856;2022-12-11T01:22:55;0.10;91.30
56426;DHT22;42330;43.620;3.856;2022-12-11T01:25:21;0.20;91.70
56426;DHT22;42330;43.620;3.856;2022-12-11T01:27:49;0.30;91.20
56426;DHT22;42330;43.620;3.856;2022-12-11T01:30:17;0.10;90.30
56426;DHT22;42330;43.620;3.856;2022-12-11T01:32:43;-0.20;90.90
56426;DHT22;42330;43.620;3.856;2022-12-11T01:35:10;-0.30;92.20
56426;DHT22;42330;43.620;3.856;2022-12-11T01:37:36;0.20;93.10
56426;DHT22;42330;43.620;3.856;2022-12-11T01:40:03;0.30;92.90
56426;DHT22;42330;43.620;3.856;2022-12-11T01:42:29;0.20;91.00
56426;DHT22;42330;43.620;3.856;2022-12-11T01:45:29;0.20;90.30
56426;DHT22;42330;43.620;3.856;2022-12-11T01:48:08;0.30;90.80
56426;DHT22;42330;43.620;3.856;2022-12-11T01:50:44;0.60;90.60
56426;DHT22;42330;43.620;3.856;2022-12-11T01:53:57;0.70;90.70
56426;DHT22;42330;43.620;3.856;2022-12-11T01:56:04;0.70;87.50
56426;DHT22;42330;43.620;3.856;2022-12-11T01:58:39;0.70;90.70
56426;DHT22;42330;43.620;3.856;2022-12-11T02:01:06;0.70;90.40
56426;DHT22;42330;43.620;3.856;2022-12-11T02:03:32;0.50;87.80
56426;DHT22;42330;43.620;3.856;2022-12-11T02:06:02;0.50;89.30
56426;DHT22;42330;43.620;3.856;2022-12-11T02:08:28;0.50;89.10
56426;DHT22;42330;43.620;3.856;2022-12-11T02:11:13;0.50;88.10
56426;DHT22;42330;43.620;3.856;2022-12-11T02:16:20;0.70;90.20
56426;DHT22;42330;43.620;3.856;2022-12-11T02:19:28;0.80;89.90
56426;DHT22;42330;43.620;3.856;2022-12-11T02:21:56;0.80;87.50
56426;DHT22;42330;43.620;3.856;2022-12-11T02:24:39;0.80;88.50
56426;DHT22;42330;43.620;3.856;2022-12-11T02:29:42;0.60;87.00
56426;DHT22;42330;43.620;3.856;2022-12-11T02:32:24;0.50;88.00
56426;DHT22;42330;43.620;3.856;2022-12-11T02:37:35;0.40;86.70
56426;DHT22;42330;43.620;3.856;2022-12-11T02:40:03;0.30;86.60
56426;DHT22;42330;43.620;3.856;2022-12-11T02:42:31;0.10;86.20
56426;DHT22;42330;43.620;3.856;2022-12-11T02:44:59;0.00;87.10
56426;DHT22;42330;43.620;3.856;2022-12-11T02:47:28;0.00;88.50
56426;DHT22;42330;43.620;3.856;2022-12-11T02:49:58;0.20;89.10
56426;DHT22;42330;43.620;3.856;2022-12-11T02:52:26;0.40;89.50
56426;DHT22;42330;43.620;3.856;2022-12-11T02:54:55;0.60;89.70
56426;DHT22;42330;43.620;3.856;2022-12-11T02:57:35;0.60;86.00
56426;DHT22;42330;43.620;3.856;2022-12-11T03:00:03;0.60;86.50
56426;DHT22;42330;43.620;3.856;2022-12-11T03:02:29;0.60;87.50
56426;DHT22;42330;43.620;3.856;2022-12-11T03:04:55;0.60;88.40
56426;DHT22;42330;43.620;3.856;2022-12-11T03:07:34;0.50;87.10
56426;DHT22;42330;43.620;3.856;2022-12-11T03:10:00;0.60;87.90
56426;DHT22;42330;43.620;3.856;2022-12-11T03:12:36;0.20;85.00
56426;DHT22;42330;43.620;3.856;2022-12-11T03:15:07;0.10;88.60
56426;DHT22;42330;43.620;3.856;2022-12-11T03:17:39;0.10;88.00
56426;DHT22;42330;43.620;3.856;2022-12-11T03:20:23;0.10;89.60
56426;DHT22;42330;43.620;3.856;2022-12-11T03:25:53;0.40;90.50
56426;DHT22;42330;43.620;3.856;2022-12-11T03:28:28;0.50;87.40
56426;DHT22;42330;43.620;3.856;2022-12-11T03:30:55;0.50;87.70
56426;DHT22;42330;43.620;3.856;2022-12-11T03:33:37;0.60;88.20
56426;DHT22;42330;43.620;3.856;2022-12-11T03:36:08;0.60;86.10
56426;DHT22;42330;43.620;3.856;2022-12-11T03:38:57;0.50;87.20
56426;DHT22;42330;43.620;3.856;2022-12-11T03:41:25;0.50;86.40
56426;DHT22;42330;43.620;3.856;2022-12-11T03:43:54;0.50;88.00
56426;DHT22;42330;43.620;3.856;2022-12-11T03:46:25;0.50;87.70
56426;DHT22;42330;43.620;3.856;2022-12-11T03:48:53;0.40;84.80
56426;DHT22;42330;43.620;3.856;2022-12-11T03:51:20;0.40;87.10
56426;DHT22;42330;43.620;3.856;2022-12-11T03:53:48;0.40;86.10
56426;DHT22;42330;43.620;3.856;2022-12-11T03:56:15;0.30;84.20
56426;DHT22;42330;43.620;3.856;2022-12-11T03:58:42;0.20;87.10
56426;DHT22;42330;43.620;3.856;2022-12-11T04:01:09;0.20;87.50
56426;DHT22;42330;43.620;3.856;2022-12-11T04:03:35;0.10;85.80
56426;DHT22;42330;43.620;3.856;2022-12-11T04:06:01;0.20;89.40
56426;DHT22;42330;43.620;3.856;2022-12-11T04:08:27;0.00;85.90
56426;DHT22;42330;43.620;3.856;2022-12-11T04:10:52;0.00;88.00
56426;DHT22;42330;43.620;3.856;2022-12-11T04:13:37;0.00;87.60
56426;DHT22;42330;43.620;3.856;2022-12-11T04:16:03;-0.30;85.70
56426;DHT22;42330;43.620;3.856;2022-12-11T04:18:29;-0.20;87.90
56426;DHT22;42330;43.620;3.856;2022-12-11T04:21:13;-0.30;87.20
56426;DHT22;42330;43.620;3.856;2022-12-11T04:23:57;-0.40;89.20
56426;DHT22;42330;43.620;3.856;2022-12-11T04:26:42;-0.20;89.80
56426;DHT22;42330;43.620;3.856;2022-12-11T04:29:08;-0.20;88.50
56426;DHT22;42330;43.620;3.856;2022-12-11T04:31:34;0.10;89.70
56426;DHT22;42330;43.620;3.856;2022-12-11T04:33:59;-0.20;86.10
56426;DHT22;42330;43.620;3.856;2022-12-11T04:36:25;-0.40;87.40
56426;DHT22;42330;43.620;3.856;2022-12-11T04:38:51;-0.60;87.20
56426;DHT22;42330;43.620;3.856;2022-12-11T04:41:16;-0.80;88.40
56426;DHT22;42330;43.620;3.856;2022-12-11T04:43:42;-0.90;88.80
56426;DHT22;42330;43.620;3.856;2022-12-11T04:46:15;-0.90;88.80
56426;DHT22;42330;43.620;3.856;2022-12-11T04:48:41;-0.70;90.30
56426;DHT22;42330;43.620;3.856;2022-12-11T04:51:07;-0.50;90.40
56426;DHT22;42330;43.620;3.856;2022-12-11T04:53:34;-0.50;89.00
56426;DHT22;42330;43.620;3.856;2022-12-11T04:56:00;-0.60;87.70
56426;DHT22;42330;43.620;3.856;2022-12-11T04:58:26;-0.70;88.00
56426;DHT22;42330;43.620;3.856;2022-12-11T05:00:52;-0.70;88.60
56426;DHT22;42330;43.620;3.856;2022-12-11T05:03:18;-0.60;89.30
56426;DHT22;42330;43.620;3.856;2022-12-11T05:05:48;-0.60;88.80
56426;DHT22;42330;43.620;3.856;2022-12-11T05:08:18;-0.40;90.00
56426;DHT22;42330;43.620;3.856;2022-12-11T05:10:53;-0.40;90.10
56426;DHT22;42330;43.620;3.856;2022-12-11T05:13:18;-0.30;90.30
56426;DHT22;42330;43.620;3.856;2022-12-11T05:15:44;-0.30;87.70
56426;DHT22;42330;43.620;3.856;2022-12-11T05:18:10;-0.40;87.30
56426;DHT22;42330;43.620;3.856;2022-12-11T05:20:35;-0.30;89.30
56426;DHT22;42330;43.620;3.856;2022-12-11T05:23:01;-0.20;88.50
56426;DHT22;42330;43.620;3.856;2022-12-11T05:25:27;-0.30;88.10
56426;DHT22;42330;43.620;3.856;2022-12-11T05:27:52;-0.30;88.30
56426;DHT22;42330;43.620;3.856;2022-12-11T05:30:18;-0.40;87.60
56426;DHT22;42330;43.620;3.856;2022-12-11T05:32:43;-0.70;86.00
56426;DHT22;42330;43.620;3.856;2022-12-11T05:35:09;-0.70;88.90
56426;DHT22;42330;43.620;3.856;2022-12-11T05:37:35;-0.60;89.30
56426;DHT22;42330;43.620;3.856;2022-12-11T05:40:01;-0.60;89.00
56426;DHT22;42330;43.620;3.856;2022-12-11T05:42:26;-0.70;88.90
56426;DHT22;42330;43.620;3.856;2022-12-11T05:44:52;-0.70;88.60
56426;DHT22;42330;43.620;3.856;2022-12-11T05:47:18;-0.60;88.00
56426;DHT22;42330;43.620;3.856;2022-12-11T05:49:45;-0.70;88.90
56426;DHT22;42330;43.620;3.856;2022-12-11T05:52:12;-0.80;88.50
56426;DHT22;42330;43.620;3.856;2022-12-11T05:54:37;-1.00;88.80
56426;DHT22;42330;43.620;3.856;2022-12-11T05:57:03;-0.90;90.80
56426;DHT22;42330;43.620;3.856;2022-12-11T05:59:29;-0.70;90.50
56426;DHT22;42330;43.620;3.856;2022-12-11T06:01:54;-0.60;90.60
56426;DHT22;42330;43.620;3.856;2022-12-11T06:04:20;-0.50;90.70
56426;DHT22;42330;43.620;3.856;2022-12-11T06:06:46;-0.60;90.10
56426;DHT22;42330;43.620;3.856;2022-12-11T06:09:15;-0.80;88.70
56426;DHT22;42330;43.620;3.856;2022-12-11T06:11:41;-0.60;91.00
56426;DHT22;42330;43.620;3.856;2022-12-11T06:14:08;-0.60;90.70
56426;DHT22;42330;43.620;3.856;2022-12-11T06:16:34;-0.50;90.40
56426;DHT22;42330;43.620;3.856;2022-12-11T06:19:00;-0.70;90.30
56426;DHT22;42330;43.620;3.856;2022-12-11T06:21:28;-0.90;89.60
56426;DHT22;42330;43.620;3.856;2022-12-11T06:23:56;-1.10;90.70
56426;DHT22;42330;43.620;3.856;2022-12-11T06:26:23;-1.10;90.50
56426;DHT22;42330;43.620;3.856;2022-12-11T06:28:49;-1.30;90.30
56426;DHT22;42330;43.620;3.856;2022-12-11T06:31:15;-1.20;90.60
56426;DHT22;42330;43.620;3.856;2022-12-11T06:33:41;-1.10;91.00
56426;DHT22;42330;43.620;3.856;2022-12-11T06:36:10;-0.70;92.00
56426;DHT22;42330;43.620;3.856;2022-12-11T06:38:36;-0.80;90.80
56426;DHT22;42330;43.620;3.856;2022-12-11T06:41:03;-0.70;90.70
56426;DHT22;42330;43.620;3.856;2022-12-11T06:43:34;-0.70;90.50
56426;DHT22;42330;43.620;3.856;2022-12-11T06:46:08;-0.60;91.00
56426;DHT22;42330;43.620;3.856;2022-12-11T06:48:33;-0.40;90.90
56426;DHT22;42330;43.620;3.856;2022-12-11T06:51:21;-0.40;89.50
56426;DHT22;42330;43.620;3.856;2022-12-11T06:53:52;-0.40;88.10
56426;DHT22;42330;43.620;3.856;2022-12-11T06:56:18;-0.60;87.70
56426;DHT22;42330;43.620;3.856;2022-12-11T06:58:44;-0.60;90.00
56426;DHT22;42330;43.620;3.856;2022-12-11T07:01:24;-0.50;88.70
56426;DHT22;42330;43.620;3.856;2022-12-11T07:03:52;-0.60;87.90
56426;DHT22;42330;43.620;3.856;2022-12-11T07:06:18;-0.60;90.20
56426;DHT22;42330;43.620;3.856;2022-12-11T07:08:44;-0.80;88.10
56426;DHT22;42330;43.620;3.856;2022-12-11T07:11:12;-0.90;88.20
56426;DHT22;42330;43.620;3.856;2022-12-11T07:13:39;-0.70;90.00
56426;DHT22;42330;43.620;3.856;2022-12-11T07:16:06;-0.80;87.60
56426;DHT22;42330;43.620;3.856;2022-12-11T07:18:37;-0.90;87.60
56426;DHT22;42330;43.620;3.856;2022-12-11T07:21:04;-0.90;88.30
56426;DHT22;42330;43.620;3.856;2022-12-11T07:23:30;-0.70;90.40
56426;DHT22;42330;43.620;3.856;2022-12-11T07:25:56;-0.80;90.10
56426;DHT22;42330;43.620;3.856;2022-12-11T07:28:22;-0.70;90.10
56426;DHT22;42330;43.620;3.856;2022-12-11T07:30:48;-0.80;89.10
56426;DHT22;42330;43.620;3.856;2022-12-11T07:33:14;-0.80;88.30
56426;DHT22;42330;43.620;3.856;2022-12-11T07:35:40;-0.90;88.60
56426;DHT22;42330;43.620;3.856;2022-12-11T07:38:06;-0.90;88.20
56426;DHT22;42330;43.620;3.856;2022-12-11T07:40:32;-0.80;88.30
56426;DHT22;42330;43.620;3.856;2022-12-11T07:42:58;-0.90;86.80
56426;DHT22;42330;43.620;3.856;2022-12-11T07:45:24;-0.80;87.30
56426;DHT22;42330;43.620;3.856;2022-12-11T07:47:51;-0.70;87.10
56426;DHT22;42330;43.620;3.856;2022-12-11T07:50:17;-0.70;86.50
56426;DHT22;42330;43.620;3.856;2022-12-11T07:52:43;-0.60;86.90
56426;DHT22;42330;43.620;3.856;2022-12-11T07:55:09;-0.70;85.30
56426;DHT22;42330;43.620;3.856;2022-12-11T07:57:35;-0.50;86.60
56426;DHT22;42330;43.620;3.856;2022-12-11T08:00:01;-0.50;85.50
56426;DHT22;42330;43.620;3.856;2022-12-11T08:02:26;-0.50;85.40
56426;DHT22;42330;43.620;3.856;2022-12-11T08:04:52;-0.40;85.80
56426;DHT22;42330;43.620;3.856;2022-12-11T08:07:17;-0.20;86.40
56426;DHT22;42330;43.620;3.856;2022-12-11T08:09:43;-0.10;85.70
56426;DHT22;42330;43.620;3.856;2022-12-11T08:12:09;-0.10;85.80
56426;DHT22;42330;43.620;3.856;2022-12-11T08:14:34;0.00;85.90
56426;DHT22;42330;43.620;3.856;2022-12-11T08:17:00;0.00;84.70
56426;DHT22;42330;43.620;3.856;2022-12-11T08:19:27;0.10;87.40
56426;DHT22;42330;43.620;3.856;2022-12-11T08:21:53;0.10;86.00
56426;DHT22;42330;43.620;3.856;2022-12-11T08:24:18;0.20;85.40
56426;DHT22;42330;43.620;3.856;2022-12-11T08:26:46;0.40;87.00
56426;DHT22;42330;43.620;3.856;2022-12-11T08:29:12;0.40;85.60
56426;DHT22;42330;43.620;3.856;2022-12-11T08:31:39;0.70;86.80
56426;DHT22;42330;43.620;3.856;2022-12-11T08:34:05;0.60;83.80
56426;DHT22;42330;43.620;3.856;2022-12-11T08:36:31;0.70;86.10
56426;DHT22;42330;43.620;3.856;2022-12-11T08:38:57;0.80;84.10
56426;DHT22;42330;43.620;3.856;2022-12-11T08:41:26;0.80;84.20
56426;DHT22;42330;43.620;3.856;2022-12-11T08:43:52;0.80;83.80
56426;DHT22;42330;43.620;3.856;2022-12-11T08:46:21;0.90;84.10
56426;DHT22;42330;43.620;3.856;2022-12-11T08:48:48;0.90;85.00
56426;DHT22;42330;43.620;3.856;2022-12-11T08:51:17;0.80;82.80
56426;DHT22;42330;43.620;3.856;2022-12-11T08:53:43;0.80;84.80
56426;DHT22;42330;43.620;3.856;2022-12-11T08:56:14;0.80;84.20
56426;DHT22;42330;43.620;3.856;2022-12-11T08:58:41;0.90;84.20
56426;DHT22;42330;43.620;3.856;2022-12-11T09:01:13;1.00;87.00
56426;DHT22;42330;43.620;3.856;2022-12-11T09:03:39;1.00;83.00
56426;DHT22;42330;43.620;3.856;2022-12-11T09:06:07;0.90;82.10
56426;DHT22;42330;43.620;3.856;2022-12-11T09:08:33;0.90;82.10
56426;DHT22;42330;43.620;3.856;2022-12-11T09:11:07;1.00;82.90
56426;DHT22;42330;43.620;3.856;2022-12-11T09:13:33;1.10;85.00
56426;DHT22;42330;43.620;3.856;2022-12-11T09:15:59;1.30;83.30
56426;DHT22;42330;43.620;3.856;2022-12-11T09:18:25;1.50;83.40
56426;DHT22;42330;43.620;3.856;2022-12-11T09:21:03;1.40;81.00
56426;DHT22;42330;43.620;3.856;2022-12-11T09:23:29;1.40;81.70
56426;DHT22;42330;43.620;3.856;2022-12-11T09:25:55;1.50;81.90
56426;DHT22;42330;43.620;3.856;2022-12-11T09:28:21;1.60;81.60
56426;DHT22;42330;43.620;3.856;2022-12-11T09:30:47;1.70;81.90
56426;DHT22;42330;43.620;3.856;2022-12-11T09:33:12;1.80;84.30
56426;DHT22;42330;43.620;3.856;2022-12-11T09:35:38;1.90;83.20
56426;DHT22;42330;43.620;3.856;2022-12-11T09:38:04;1.80;81.30
56426;DHT22;42330;43.620;3.856;2022-12-11T09:40:31;1.90;83.70
56426;DHT22;42330;43.620;3.856;2022-12-11T09:43:02;2.00;81.40
56426;DHT22;42330;43.620;3.856;2022-12-11T09:45:30;2.00;80.70
56426;DHT22;42330;43.620;3.856;2022-12-11T09:47:59;2.20;83.80
56426;DHT22;42330;43.620;3.856;2022-12-11T09:50:29;2.20;83.40
56426;DHT22;42330;43.620;3.856;2022-12-11T09:55:47;2.50;82.50
56426;DHT22;42330;43.620;3.856;2022-12-11T10:01:17;2.40;80.00
56426;DHT22;42330;43.620;3.856;2022-12-11T10:04:53;2.40;78.40
56426;DHT22;42330;43.620;3.856;2022-12-11T10:17:44;2.80;81.90
56426;DHT22;42330;43.620;3.856;2022-12-11T10:20:25;2.90;81.90
56426;DHT22;42330;43.620;3.856;2022-12-11T10:22:53;2.90;82.70
56426;DHT22;42330;43.620;3.856;2022-12-11T10:25:36;3.00;81.60
56426;DHT22;42330;43.620;3.856;2022-12-11T10:28:13;3.10;81.60
56426;DHT22;42330;43.620;3.856;2022-12-11T10:31:31;3.10;82.00
56426;DHT22;42330;43.620;3.856;2022-12-11T10:33:58;3.10;81.20
56426;DHT22;42330;43.620;3.856;2022-12-11T10:36:30;3.20;78.90
56426;DHT22;42330;43.620;3.856;2022-12-11T10:38:57;3.30;76.00
56426;DHT22;42330;43.620;3.856;2022-12-11T10:41:34;3.50;77.70
56426;DHT22;42330;43.620;3.856;2022-12-11T10:44:00;3.80;79.40
56426;DHT22;42330;43.620;3.856;2022-12-11T10:46:38;4.00;75.70
56426;DHT22;42330;43.620;3.856;2022-12-11T10:49:04;4.20;74.60
56426;DHT22;42330;43.620;3.856;2022-12-11T10:53:59;4.40;73.90
56426;DHT22;42330;43.620;3.856;2022-12-11T10:56:28;4.60;72.30
56426;DHT22;42330;43.620;3.856;2022-12-11T10:58:56;4.70;71.50
56426;DHT22;42330;43.620;3.856;2022-12-11T11:01:24;4.50;68.30
56426;DHT22;42330;43.620;3.856;2022-12-11T11:04:03;4.40;66.60
56426;DHT22;42330;43.620;3.856;2022-12-11T11:06:31;4.30;70.10
56426;DHT22;42330;43.620;3.856;2022-12-11T11:08:59;4.30;70.20
56426;DHT22;42330;43.620;3.856;2022-12-11T11:13:52;4.30;65.60
56426;DHT22;42330;43.620;3.856;2022-12-11T11:16:28;4.40;67.10
56426;DHT22;42330;43.620;3.856;2022-12-11T11:18:55;4.40;66.20
56426;DHT22;42330;43.620;3.856;2022-12-11T11:21:23;4.40;68.00
56426;DHT22;42330;43.620;3.856;2022-12-11T11:26:25;4.60;66.10
56426;DHT22;42330;43.620;3.856;2022-12-11T11:28:56;4.70;65.60
56426;DHT22;42330;43.620;3.856;2022-12-11T11:31:33;4.80;64.20
56426;DHT22;42330;43.620;3.856;2022-12-11T11:34:02;4.90;68.20
56426;DHT22;42330;43.620;3.856;2022-12-11T11:36:32;4.90;62.40
56426;DHT22;42330;43.620;3.856;2022-12-11T11:41:34;5.10;63.30
56426;DHT22;42330;43.620;3.856;2022-12-11T11:44:04;5.20;63.00
56426;DHT22;42330;43.620;3.856;2022-12-11T11:46:45;5.20;60.50
56426;DHT22;42330;43.620;3.856;2022-12-11T11:49:17;5.20;63.40
56426;DHT22;42330;43.620;3.856;2022-12-11T11:54:38;5.30;60.90
56426;DHT22;42330;43.620;3.856;2022-12-11T12:00:24;5.30;65.70
56426;DHT22;42330;43.620;3.856;2022-12-11T12:02:55;5.30;68.30
56426;DHT22;42330;43.620;3.856;2022-12-11T12:05:34;5.30;68.40
56426;DHT22;42330;43.620;3.856;2022-12-11T12:10:43;5.30;60.10
56426;DHT22;42330;43.620;3.856;2022-12-11T12:13:24;5.40;63.50
56426;DHT22;42330;43.620;3.856;2022-12-11T12:15:56;5.40;64.90
56426;DHT22;42330;43.620;3.856;2022-12-11T12:24:30;5.50;69.00
56426;DHT22;42330;43.620;3.856;2022-12-11T12:27:23;5.60;63.80
